Time;durP1;ratioP1;P1;durP2;ratioP2;P2;SDS_P1;SDS_P2;PMS_P1;PMS_P2;Temp;Humidity;BMP_temperature;BMP_pressure;BME280_temperature;BME280_humidity;BME280_pressure;Samples;Min_cycle;Max_cycle;Signal;HPM_P1;HPM_P2
2022/06/08 00:02:20;;;;;;;4.63;3.60;;;;;;;17.27;63.04;100357.40;1739574;81;21569;-72
2022/06/08 00:04:48;;;;;;;5.23;3.70;;;;;;;17.24;63.19;100362.62;1739043;81;21955;-72
2022/06/08 00:07:14;;;;;;;5.67;3.93;;;;;;;17.21;63.11;100358.66;1739535;81;22033;-73
2022/06/08 00:09:42;;;;;;;4.83;3.70;;;;;;;17.19;63.53;100362.75;1735491;81;21410;-71
2022/06/08 00:12:11;;;;;;;5.83;4.10;;;;;;;17.19;63.53;100362.75;1735367;81;21392;-73
2022/06/08 00:14:38;;;;;;;5.13;3.80;;;;;;;17.16;63.77;100363.36;1738405;81;21451;-72
2022/06/08 00:17:07;;;;;;;5.73;4.30;;;;;;;17.13;63.93;100361.27;1739499;81;21306;-72
2022/06/08 00:19:34;;;;;;;6.57;4.43;;;;;;;17.12;64.31;100367.23;1732669;81;22327;-72
2022/06/08 00:22:01;;;;;;;7.17;4.23;;;;;;;17.11;64.89;100368.34;1739165;81;21445;-72
2022/06/08 00:24:28;;;;;;;6.80;4.10;;;;;;;17.09;65.26;100359.19;1734868;81;21340;-70
2022/06/08 00:26:56;;;;;;;5.97;4.10;;;;;;;17.11;65.61;100359.69;1736410;81;22354;-71
2022/06/08 00:29:23;;;;;;;7.17;4.37;;;;;;;17.13;65.89;100359.92;1736646;81;21377;-71
2022/06/08 00:31:52;;;;;;;5.47;4.10;;;;;;;17.14;66.17;100358.81;1735580;81;22097;-71
2022/06/08 00:34:18;;;;;;;5.60;3.93;;;;;;;17.15;66.22;100357.73;1737958;81;22809;-72
2022/06/08 00:36:45;;;;;;;5.97;4.27;;;;;;;17.17;66.35;100353.59;1735506;81;21312;-72
2022/06/08 00:39:11;;;;;;;5.73;4.27;;;;;;;17.19;66.51;100354.10;1736319;81;21865;-71
2022/06/08 00:41:53;;;;;;;6.03;4.27;;;;;;;17.20;66.58;100350.84;1739979;81;21487;-72
2022/06/08 00:44:33;;;;;;;5.60;4.00;;;;;;;17.22;66.72;100352.14;1740785;81;21814;-72
2022/06/08 00:47:01;;;;;;;7.67;4.40;;;;;;;17.22;66.89;100350.80;1736975;81;22280;-72
2022/06/08 00:49:44;;;;;;;5.13;4.10;;;;;;;17.18;67.08;100344.97;1739439;81;21424;-71
2022/06/08 00:52:12;;;;;;;5.20;3.90;;;;;;;17.18;67.08;100344.97;1741028;81;21468;-72
2022/06/08 00:54:45;;;;;;;6.37;4.17;;;;;;;17.16;67.58;100341.77;1733104;81;21911;-72
2022/06/08 00:57:20;;;;;;;6.17;4.20;;;;;;;17.13;67.72;100338.34;1737669;81;26622;-73
2022/06/08 00:59:55;;;;;;;6.57;4.30;;;;;;;17.10;67.92;100335.13;1740335;81;21542;-72
2022/06/08 01:02:23;;;;;;;6.17;4.10;;;;;;;17.10;68.12;100338.39;1738483;81;21996;-71
2022/06/08 01:04:50;;;;;;;7.27;4.43;;;;;;;17.08;68.30;100338.70;1741500;81;21732;-72
2022/06/08 01:07:20;;;;;;;5.57;4.33;;;;;;;17.07;68.50;100339.00;1759785;80;21870;-72
2022/06/08 01:09:47;;;;;;;5.47;4.40;;;;;;;17.05;68.67;100335.83;1739435;81;21326;-71
2022/06/08 01:12:17;;;;;;;6.93;4.57;;;;;;;17.02;68.87;100336.44;1733733;81;21819;-71
2022/06/08 01:14:48;;;;;;;7.10;4.70;;;;;;;16.99;69.00;100332.44;1761238;80;21393;-72
2022/06/08 01:17:18;;;;;;;6.37;4.33;;;;;;;16.98;69.10;100331.38;1752354;80;21866;-71
2022/06/08 01:19:48;;;;;;;6.45;4.78;;;;;;;16.96;69.18;100333.59;1759682;80;21781;-71
2022/06/08 01:22:18;;;;;;;5.40;4.50;;;;;;;16.93;69.28;100343.09;1734949;81;21049;-71
2022/06/08 01:24:49;;;;;;;6.50;4.50;;;;;;;16.91;69.48;100335.05;1736006;81;21838;-72
2022/06/08 01:27:54;;;;;;;5.72;4.35;;;;;;;16.88;69.66;100337.83;1745723;80;21533;-73
2022/06/08 01:30:30;;;;;;;5.57;4.13;;;;;;;16.85;69.84;100340.58;1731715;80;21193;-72
2022/06/08 01:33:34;;;;;;;5.50;4.17;;;;;;;16.82;70.12;100337.70;1742530;80;22787;-73
2022/06/08 01:36:40;;;;;;;;;;;;;;;16.78;70.39;100336.69;1624682;86;21451;-72
2022/06/08 01:39:12;;;;;;;5.00;3.50;;;;;;;16.71;70.91;100344.36;1722528;81;20164;-70
2022/06/08 01:42:05;;;;;;;4.90;3.87;;;;;;;16.64;71.34;100340.17;1738679;81;21158;-71
2022/06/08 01:48:16;;;;;;;5.40;3.80;;;;;;;16.62;71.93;100334.31;1733581;81;21283;-72
2022/06/08 01:51:20;;;;;;;5.60;3.77;;;;;;;16.60;72.32;100339.19;1747358;81;21305;-72
2022/06/08 01:54:04;;;;;;;4.83;3.83;;;;;;;16.57;72.75;100340.34;1742028;80;21272;-72
2022/06/08 01:56:48;;;;;;;4.75;3.45;;;;;;;16.56;73.06;100343.60;1739568;80;21310;-71
2022/06/08 01:59:35;;;;;;;8.43;3.70;;;;;;;16.58;73.24;100337.89;1737265;80;21236;-72
2022/06/08 02:02:22;;;;;;;4.27;3.50;;;;;;;16.57;73.40;100339.80;1732336;81;21315;-71
2022/06/08 02:04:57;;;;;;;4.90;4.00;;;;;;;16.57;73.53;100336.30;1743603;80;21304;-71
2022/06/08 02:07:45;;;;;;;5.23;3.80;;;;;;;16.56;73.66;100340.91;1740800;81;21296;-72
2022/06/08 02:10:27;;;;;;;6.33;3.87;;;;;;;16.58;73.80;100342.76;1736976;81;21827;-72
2022/06/08 02:13:02;;;;;;;5.80;3.77;;;;;;;16.62;73.85;100345.65;1757905;80;21963;-72
2022/06/08 02:15:40;;;;;;;4.93;3.67;;;;;;;16.65;73.87;100343.14;1732697;80;21089;-71
2022/06/08 02:18:18;;;;;;;4.23;3.37;;;;;;;16.68;73.90;100347.66;1743714;81;21426;-73
2022/06/08 02:20:58;;;;;;;5.10;4.00;;;;;;;16.64;74.14;100346.92;1736528;81;21532;-71
2022/06/08 02:23:41;;;;;;;5.50;4.30;;;;;;;16.67;74.21;100344.73;1759969;80;21413;-72
2022/06/08 02:26:30;;;;;;;4.70;4.10;;;;;;;16.72;74.19;100348.67;1739200;80;21440;-70
2022/06/08 02:29:13;;;;;;;4.60;3.87;;;;;;;16.78;74.16;100346.13;1727637;81;21466;-72
2022/06/08 02:31:45;;;;;;;4.90;3.70;;;;;;;16.83;74.13;100350.86;1715991;81;21394;-71
2022/06/08 02:34:29;;;;;;;5.30;4.10;;;;;;;16.90;73.96;100356.39;1735644;80;21412;-71
2022/06/08 02:37:10;;;;;;;4.97;4.13;;;;;;;17.02;73.91;100356.11;1758307;80;21490;-72
2022/06/08 02:39:46;;;;;;;4.90;4.40;;;;;;;17.02;73.91;100356.11;1745735;81;21401;-70
2022/06/08 02:42:19;;;;;;;4.73;3.67;;;;;;;17.09;73.55;100352.99;1743143;80;21082;-72
2022/06/08 02:44:47;;;;;;;4.43;3.70;;;;;;;17.13;73.43;100347.78;1739721;80;21555;-72
2022/06/08 02:47:31;;;;;;;5.63;4.13;;;;;;;17.18;73.32;100347.67;1739264;81;21549;-72
2022/06/08 02:50:12;;;;;;;4.30;3.90;;;;;;;17.35;72.99;100353.19;1761529;80;21460;-72
2022/06/08 02:52:45;;;;;;;5.83;4.00;;;;;;;17.46;72.54;100357.22;1744852;81;21542;-72
2022/06/08 02:55:21;;;;;;;7.33;4.23;;;;;;;17.53;72.18;100340.03;1735502;80;21551;-71
2022/06/08 02:58:12;;;;;;;6.20;4.17;;;;;;;17.65;71.92;100357.59;1730839;81;21698;-72
2022/06/08 03:00:51;;;;;;;6.33;4.07;;;;;;;17.83;71.33;100357.94;1725138;82;21765;-72
2022/06/08 03:03:28;;;;;;;5.13;3.70;;;;;;;17.83;71.33;100357.94;1734317;81;21070;-72
2022/06/08 03:06:05;;;;;;;5.40;4.00;;;;;;;17.93;71.14;100355.00;1757877;80;22233;-72
2022/06/08 03:08:37;;;;;;;5.57;4.10;;;;;;;18.01;71.05;100351.52;1739025;81;21779;-72
2022/06/08 03:11:07;;;;;;;5.47;4.00;;;;;;;18.10;70.80;100347.52;1734072;81;22158;-71
2022/06/08 03:13:44;;;;;;;5.57;4.00;;;;;;;18.21;70.68;100348.81;1721804;82;22207;-72
2022/06/08 03:16:31;;;;;;;4.57;3.73;;;;;;;18.25;70.33;100351.69;1744086;81;21645;-72
2022/06/08 03:18:59;;;;;;;6.67;3.77;;;;;;;18.29;70.02;100345.89;1743732;80;21805;-71
2022/06/08 03:21:26;;;;;;;7.13;4.10;;;;;;;18.36;69.63;100344.90;1732275;80;21884;-73
2022/06/08 03:23:55;;;;;;;5.67;4.07;;;;;;;18.53;68.78;100342.00;1737626;80;21761;-72
2022/06/08 03:26:23;;;;;;;5.43;3.67;;;;;;;18.53;68.78;100342.00;1759934;80;21031;-72
2022/06/08 03:28:50;;;;;;;6.10;4.00;;;;;;;18.60;68.12;100340.97;1744293;81;22171;-72
2022/06/08 03:31:18;;;;;;;4.73;4.20;;;;;;;18.66;67.65;100339.71;1739021;81;21242;-71
2022/06/08 03:33:44;;;;;;;4.73;4.10;;;;;;;18.75;67.29;100345.94;1751310;80;21769;-72
2022/06/08 03:36:12;;;;;;;5.77;4.20;;;;;;;18.80;66.86;100337.67;1736353;81;21062;-71
2022/06/08 03:38:39;;;;;;;5.63;4.47;;;;;;;18.80;66.86;100337.67;1748482;81;21064;-72
2022/06/08 03:41:06;;;;;;;6.03;4.13;;;;;;;18.86;66.86;100341.82;1735134;80;21510;-72
2022/06/08 03:43:33;;;;;;;5.43;4.10;;;;;;;19.07;66.56;100340.62;1734261;80;21220;-73
2022/06/08 03:46:02;;;;;;;6.73;3.90;;;;;;;19.23;66.27;100337.44;1758305;80;21117;-71
2022/06/08 03:48:29;;;;;;;4.90;4.13;;;;;;;19.23;66.27;100337.44;1730139;80;21030;-73
2022/06/08 03:50:57;;;;;;;5.53;4.23;;;;;;;19.36;66.22;100341.31;1761319;80;21091;-72
2022/06/08 03:53:35;;;;;;;5.47;4.27;;;;;;;19.52;66.15;100342.17;1756335;80;21542;-74
2022/06/08 03:56:05;;;;;;;7.03;4.13;;;;;;;19.67;66.07;100345.17;1754328;80;21629;-72
2022/06/08 03:58:32;;;;;;;6.30;4.30;;;;;;;19.86;65.94;100344.80;1756690;80;21003;-71
2022/06/08 04:00:59;;;;;;;5.33;4.30;;;;;;;20.05;65.82;100344.98;1757997;80;21071;-71
2022/06/08 04:03:26;;;;;;;5.10;4.20;;;;;;;20.23;65.71;100344.33;1743578;80;21507;-70
2022/06/08 04:05:53;;;;;;;5.10;4.20;;;;;;;20.39;65.63;100342.08;1760927;80;21502;-72
2022/06/08 04:08:23;;;;;;;6.30;4.37;;;;;;;20.57;65.28;100340.67;1761727;80;21063;-72
2022/06/08 04:10:53;;;;;;;4.43;3.80;;;;;;;20.68;65.11;100345.93;1743776;81;21457;-71
2022/06/08 04:13:20;;;;;;;5.57;4.00;;;;;;;20.87;64.92;100348.77;1733887;81;21048;-72
2022/06/08 04:15:49;;;;;;;7.43;4.37;;;;;;;21.00;64.56;100351.78;1730550;81;21130;-71
2022/06/08 04:18:22;;;;;;;5.37;4.23;;;;;;;21.05;64.45;100342.84;1751648;81;21640;-72
2022/06/08 04:20:52;;;;;;;5.60;3.60;;;;;;;21.15;64.39;100346.28;1747953;81;21114;-72
2022/06/08 04:23:21;;;;;;;4.90;3.83;;;;;;;21.29;64.08;100346.25;1751420;81;21103;-72
2022/06/08 04:25:48;;;;;;;4.60;3.80;;;;;;;21.43;63.28;100345.19;1757149;80;21510;-72
2022/06/08 04:28:15;;;;;;;4.77;3.80;;;;;;;21.68;62.46;100344.09;1705772;82;21703;-73
2022/06/08 04:30:43;;;;;;;5.97;3.97;;;;;;;21.72;62.18;100345.03;1736403;81;21620;-71
2022/06/08 04:33:11;;;;;;;5.67;4.03;;;;;;;21.81;61.92;100344.12;1706959;81;22359;-73
2022/06/08 04:35:38;;;;;;;5.67;4.30;;;;;;;21.87;61.81;100346.86;1735776;81;21534;-73
2022/06/08 04:38:06;;;;;;;4.90;4.03;;;;;;;21.91;61.79;100347.77;1731868;81;21086;-72
2022/06/08 04:40:36;;;;;;;5.80;4.10;;;;;;;21.95;61.83;100351.42;1736406;81;21168;-72
2022/06/08 04:43:04;;;;;;;5.47;4.07;;;;;;;21.95;62.01;100350.05;1739149;80;21502;-72
2022/06/08 04:45:35;;;;;;;5.53;4.27;;;;;;;21.94;62.45;100348.45;1734948;81;21561;-72
2022/06/08 04:48:02;;;;;;;6.17;3.87;;;;;;;21.97;62.88;100354.57;1735939;81;21565;-72
2022/06/08 04:50:30;;;;;;;5.43;3.47;;;;;;;22.02;62.60;100354.36;1742555;80;21078;-72
2022/06/08 04:52:56;;;;;;;5.60;3.60;;;;;;;22.13;61.86;100360.14;1741098;81;21110;-72
2022/06/08 04:55:23;;;;;;;4.17;3.20;;;;;;;22.24;60.43;100352.59;1740699;81;21034;-72
2022/06/08 04:57:51;;;;;;;5.20;3.13;;;;;;;22.39;59.77;100353.81;1739148;81;21561;-71
2022/06/08 05:00:21;;;;;;;3.90;2.87;;;;;;;22.60;58.94;100351.52;1740394;81;21652;-72
2022/06/08 05:02:51;;;;;;;4.57;2.97;;;;;;;22.83;56.69;100354.53;1743256;81;20983;-72
2022/06/08 05:05:24;;;;;;;4.85;2.75;;;;;;;22.98;55.17;100354.42;1739721;81;28653;-73
2022/06/08 05:07:52;;;;;;;5.90;2.63;;;;;;;23.13;54.07;100357.21;1733936;81;21137;-73
2022/06/08 05:10:23;;;;;;;6.63;3.00;;;;;;;23.26;52.81;100356.56;1743533;81;21874;-72
2022/06/08 05:12:49;;;;;;;4.20;2.70;;;;;;;23.33;52.33;100352.70;1738764;81;21073;-72
2022/06/08 05:15:23;;;;;;;3.73;2.60;;;;;;;23.39;52.02;100356.73;1739130;81;21125;-72
2022/06/08 05:17:50;;;;;;;5.53;2.67;;;;;;;23.50;51.25;100357.61;1738209;81;21173;-73
2022/06/08 05:20:18;;;;;;;4.27;2.80;;;;;;;23.55;50.73;100355.41;1739010;81;21021;-73
2022/06/08 05:22:45;;;;;;;4.73;3.10;;;;;;;23.64;50.71;100352.53;1738993;81;21253;-73
2022/06/08 05:25:16;;;;;;;4.40;3.17;;;;;;;23.61;51.07;100355.37;1737980;81;21059;-73
2022/06/08 05:27:42;;;;;;;4.08;3.08;;;;;;;23.78;51.93;100348.82;1741624;81;21414;-74
2022/06/08 05:30:10;;;;;;;5.53;3.17;;;;;;;23.89;52.70;100353.20;1746858;81;21078;-74
2022/06/08 05:32:38;;;;;;;3.87;3.20;;;;;;;24.00;52.86;100354.25;1744847;81;21094;-73
2022/06/08 05:35:06;;;;;;;4.30;3.07;;;;;;;24.12;52.27;100349.28;1763803;80;21110;-72
2022/06/08 05:37:34;;;;;;;3.43;3.10;;;;;;;24.26;51.24;100352.34;1733317;81;21114;-73
2022/06/08 05:40:01;;;;;;;5.63;3.30;;;;;;;24.40;51.25;100350.50;1736150;81;21012;-72
2022/06/08 05:42:31;;;;;;;4.50;3.00;;;;;;;24.64;50.44;100344.61;1731139;81;20988;-73
2022/06/08 05:44:58;;;;;;;5.10;3.17;;;;;;;24.75;50.34;100346.44;1731978;81;21230;-73
2022/06/08 05:47:26;;;;;;;5.67;3.00;;;;;;;24.85;50.15;100347.03;1733944;81;21113;-73
2022/06/08 05:49:54;;;;;;;4.67;2.80;;;;;;;25.14;49.34;100349.22;1720931;81;21361;-73
2022/06/08 05:52:22;;;;;;;5.20;2.80;;;;;;;25.32;48.56;100346.81;1714425;81;21051;-73
2022/06/08 05:54:51;;;;;;;5.40;3.20;;;;;;;25.48;47.41;100352.19;1743707;81;21074;-72
2022/06/08 05:57:18;;;;;;;6.00;2.67;;;;;;;25.54;46.36;100354.06;1737237;80;21145;-72
2022/06/08 05:59:45;;;;;;;5.10;3.30;;;;;;;25.64;45.89;100352.09;1762831;80;21246;-73
2022/06/08 06:02:14;;;;;;;4.23;2.70;;;;;;;25.65;46.06;100353.66;1734502;81;21129;-73
2022/06/08 06:04:42;;;;;;;4.77;2.80;;;;;;;25.71;45.77;100350.84;1739590;81;20998;-72
2022/06/08 06:07:11;;;;;;;3.73;2.70;;;;;;;25.81;45.74;100348.89;1739286;80;21733;-72
2022/06/08 06:09:40;;;;;;;3.83;2.80;;;;;;;25.87;46.10;100346.06;1738240;81;21050;-72
2022/06/08 06:12:09;;;;;;;4.70;3.10;;;;;;;25.98;45.44;100338.61;1745056;81;21290;-73
2022/06/08 06:14:37;;;;;;;3.10;2.60;;;;;;;26.08;44.89;100344.83;1734199;81;21113;-72
2022/06/08 06:17:04;;;;;;;3.73;2.57;;;;;;;26.28;44.19;100342.20;1763451;80;21051;-73
2022/06/08 06:19:34;;;;;;;4.03;2.70;;;;;;;26.31;43.60;100343.41;1750070;81;21514;-73
2022/06/08 06:22:21;;;;;;;5.17;2.37;;;;;;;26.20;43.65;100340.53;1742496;81;21038;-73
2022/06/08 06:24:50;;;;;;;4.20;2.70;;;;;;;26.32;44.17;100334.03;1731177;80;21507;-73
2022/06/08 06:27:16;;;;;;;4.70;2.63;;;;;;;26.46;43.90;100338.95;1727617;82;21581;-73
2022/06/08 06:30:05;;;;;;;3.90;2.70;;;;;;;26.55;43.62;100332.63;1737577;81;21050;-71
2022/06/08 06:32:38;;;;;;;3.50;2.50;;;;;;;26.54;43.23;100331.06;1684272;81;21115;-73
2022/06/08 06:35:08;;;;;;;4.00;2.20;;;;;;;26.61;43.02;100326.45;1760936;80;21115;-73
2022/06/08 06:37:35;;;;;;;3.90;2.40;;;;;;;26.79;42.33;100330.03;1761409;80;21744;-73
2022/06/08 06:40:07;;;;;;;3.43;2.40;;;;;;;26.77;42.09;100332.34;1729478;80;21459;-73
2022/06/08 06:42:34;;;;;;;3.70;2.20;;;;;;;26.93;42.08;100330.19;1744925;80;21134;-72
2022/06/08 06:45:11;;;;;;;3.43;2.00;;;;;;;26.89;41.89;100330.15;1686101;81;21631;-73
2022/06/08 06:47:42;;;;;;;4.20;2.47;;;;;;;27.13;41.50;100328.09;1738337;81;21047;-72
2022/06/08 06:50:15;;;;;;;7.10;2.55;;;;;;;27.27;41.14;100330.20;1725581;81;21568;-74
2022/06/08 06:52:44;;;;;;;4.67;2.30;;;;;;;27.27;40.88;100330.20;1738821;81;21101;-73
2022/06/08 06:55:24;;;;;;;4.83;2.37;;;;;;;27.38;39.92;100324.81;1737196;81;21122;-73
2022/06/08 06:57:54;;;;;;;7.27;2.47;;;;;;;27.48;39.08;100323.57;1740254;81;21572;-71
2022/06/08 07:00:23;;;;;;;6.03;3.10;;;;;;;27.62;38.79;100330.36;1745224;81;21151;-73
2022/06/08 07:02:50;;;;;;;4.17;2.50;;;;;;;27.73;38.32;100324.37;1746904;81;21772;-73
2022/06/08 07:05:21;;;;;;;2.93;2.07;;;;;;;28.00;37.78;100325.00;1742709;80;21089;-72
2022/06/08 07:07:49;;;;;;;3.52;1.98;;;;;;;28.14;37.88;100324.33;1751642;81;21130;-72
2022/06/08 07:10:16;;;;;;;3.67;1.90;;;;;;;28.20;37.15;100323.59;1748026;81;21102;-72
2022/06/08 07:12:45;;;;;;;3.57;2.07;;;;;;;28.26;36.31;100324.78;1747883;81;21103;-71
2022/06/08 07:15:16;;;;;;;3.93;2.20;;;;;;;28.34;36.50;100327.59;1749615;81;20979;-72
2022/06/08 07:17:43;;;;;;;4.53;2.00;;;;;;;28.44;36.26;100321.41;1749472;81;21110;-73
2022/06/08 07:20:11;;;;;;;3.30;1.70;;;;;;;28.57;36.51;100321.28;1732178;81;21094;-71
2022/06/08 07:22:38;;;;;;;2.47;2.00;;;;;;;28.69;35.52;100318.20;1739022;80;21046;-72
2022/06/08 07:25:07;;;;;;;4.67;2.20;;;;;;;28.80;35.22;100320.20;1732801;81;21054;-74
2022/06/08 07:27:35;;;;;;;3.57;1.83;;;;;;;28.86;35.15;100311.77;1739747;81;21572;-72
2022/06/08 07:30:04;;;;;;;2.93;1.73;;;;;;;28.93;34.21;100314.56;1740177;81;21572;-73
2022/06/08 07:32:31;;;;;;;4.10;2.07;;;;;;;28.96;33.94;100317.31;1741115;81;20952;-73
2022/06/08 07:34:59;;;;;;;3.40;1.90;;;;;;;29.03;34.30;100313.83;1739383;81;21656;-72
2022/06/08 07:37:26;;;;;;;4.00;1.80;;;;;;;29.15;34.44;100321.70;1741084;81;21130;-73
2022/06/08 07:39:53;;;;;;;2.77;1.63;;;;;;;29.28;34.13;100318.59;1741704;81;21549;-73
2022/06/08 07:42:19;;;;;;;4.43;1.87;;;;;;;29.36;33.50;100314.70;1739361;81;21518;-71
2022/06/08 07:44:45;;;;;;;4.30;1.83;;;;;;;29.42;32.89;100317.27;1738750;81;21530;-73
2022/06/08 07:47:12;;;;;;;3.60;1.60;;;;;;;29.45;31.91;100315.08;1736624;81;21070;-74
2022/06/08 07:49:39;;;;;;;3.53;1.97;;;;;;;29.44;32.48;100316.27;1740030;81;21015;-73
2022/06/08 07:52:10;;;;;;;3.33;1.80;;;;;;;29.50;32.95;100313.92;1735057;80;21154;-74
2022/06/08 07:54:36;;;;;;;3.98;1.98;;;;;;;29.56;32.40;100307.63;1738289;80;21074;-73
2022/06/08 07:57:04;;;;;;;3.00;1.60;;;;;;;29.65;31.97;100314.16;1764325;80;21030;-73
2022/06/08 07:59:34;;;;;;;4.40;2.00;;;;;;;29.72;32.13;100314.76;1757425;80;21137;-71
2022/06/08 08:02:02;;;;;;;5.53;2.12;;;;;;;29.68;31.35;100311.98;1741820;81;20952;-72
2022/06/08 08:04:29;;;;;;;9.13;2.07;;;;;;;29.66;31.25;100313.76;1735172;81;22188;-71
2022/06/08 08:06:56;;;;;;;9.60;2.20;;;;;;;29.74;31.03;100304.91;1736430;80;21062;-74
2022/06/08 08:09:23;;;;;;;6.83;2.07;;;;;;;29.85;31.00;100311.80;1735157;81;21070;-73
2022/06/08 08:11:52;;;;;;;5.60;1.80;;;;;;;29.99;30.24;100315.91;1743092;81;21051;-74
2022/06/08 08:14:21;;;;;;;4.67;1.87;;;;;;;29.96;29.82;100309.03;1758012;81;21645;-73
2022/06/08 08:16:49;;;;;;;5.27;1.60;;;;;;;29.94;30.41;100310.80;1718090;81;21742;-76
2022/06/08 08:19:20;;;;;;;5.90;1.50;;;;;;;30.04;30.45;100311.39;1721064;82;21141;-73
2022/06/08 08:21:47;;;;;;;;;;;;;;;30.24;29.99;100310.97;1742416;81;21063;-73
2022/06/08 08:24:13;;;;;;;4.03;1.57;;;;;;;30.44;29.82;100305.23;1753850;80;20233;-72
2022/06/08 08:26:40;;;;;;;4.17;1.43;;;;;;;30.43;29.18;100305.02;1761555;80;21089;-73
2022/06/08 08:29:07;;;;;;;3.10;1.70;;;;;;;30.45;28.78;100310.93;1756783;80;21128;-71
2022/06/08 08:31:33;;;;;;;4.00;1.80;;;;;;;30.48;28.51;100304.63;1758098;80;21280;-72
2022/06/08 08:34:00;;;;;;;7.30;1.93;;;;;;;30.51;28.70;100303.83;1759525;80;21102;-75
2022/06/08 08:36:27;;;;;;;6.70;2.00;;;;;;;30.55;27.66;100298.30;1733606;81;21066;-71
2022/06/08 08:38:53;;;;;;;3.20;1.60;;;;;;;30.58;28.03;100298.28;1735465;81;21078;-73
2022/06/08 08:44:21;;;;;;;2.47;1.40;;;;;;;30.70;27.95;100294.87;1737269;81;21015;-73
2022/06/08 08:46:53;;;;;;;3.63;1.77;;;;;;;30.87;27.73;100306.47;1756141;80;21597;-73
2022/06/08 08:49:23;;;;;;;1.77;1.20;;;;;;;30.92;27.12;100296.38;1735473;81;21083;-73
2022/06/08 08:52:00;;;;;;;2.93;1.30;;;;;;;30.88;26.90;100297.00;1729686;81;21017;-74
2022/06/08 08:54:39;;;;;;;2.93;1.50;;;;;;;30.86;26.56;100294.44;1739582;80;21336;-73
2022/06/08 08:57:17;;;;;;;3.37;1.60;;;;;;;30.85;27.02;100290.91;1732669;81;21073;-72
2022/06/08 08:59:45;;;;;;;2.43;1.40;;;;;;;30.93;26.76;100290.27;1738783;81;21697;-73
2022/06/08 09:05:12;;;;;;;6.60;1.50;;;;;;;30.92;27.14;100281.21;1750815;81;21075;-73
2022/06/08 09:07:39;;;;;;;2.52;1.30;;;;;;;30.99;27.46;100285.91;1745200;81;21150;-73
2022/06/08 09:10:07;;;;;;;2.93;1.50;;;;;;;31.08;26.87;100282.89;1746318;80;21046;-73
2022/06/08 09:12:33;;;;;;;2.33;1.47;;;;;;;31.17;26.91;100280.30;1734521;80;21118;-74
2022/06/08 09:15:01;;;;;;;3.10;1.50;;;;;;;31.27;26.44;100273.91;1736471;81;21182;-73
2022/06/08 09:17:35;;;;;;;2.30;1.37;;;;;;;31.46;26.30;100272.03;1737383;81;21059;-72
2022/06/08 09:20:36;;;;;;;1.77;1.37;;;;;;;31.47;25.66;100274.97;1734629;81;21568;-73
2022/06/08 09:23:20;;;;;;;2.00;1.30;;;;;;;31.47;25.85;100275.56;1740960;81;21134;-73
2022/06/08 09:25:47;;;;;;;1.60;1.27;;;;;;;31.38;26.02;100277.40;1730086;80;21140;-73
2022/06/08 09:28:29;;;;;;;3.37;1.40;;;;;;;31.38;26.05;100277.40;1737234;80;21199;-74
2022/06/08 09:30:56;;;;;;;1.40;1.20;;;;;;;31.40;25.90;100273.65;1716183;81;21067;-73
2022/06/08 09:33:28;;;;;;;3.43;1.40;;;;;;;31.41;26.14;100269.69;1745842;81;21143;-74
2022/06/08 09:35:59;;;;;;;2.03;1.40;;;;;;;31.40;25.89;100268.13;1732519;80;21077;-73
2022/06/08 09:38:28;;;;;;;2.15;1.50;;;;;;;31.43;25.84;100261.80;1743691;81;21507;-73
2022/06/08 09:41:17;;;;;;;2.83;1.50;;;;;;;31.47;25.81;100263.14;1728047;81;21033;-73
2022/06/08 09:44:09;;;;;;;2.20;1.00;;;;;;;31.66;25.49;100261.81;1723982;81;21279;-73
2022/06/08 09:53:04;;;;;;;1.47;1.20;;;;;;;31.65;25.32;100254.70;1745332;81;21153;-72
2022/06/08 09:56:01;;;;;;;2.87;1.30;;;;;;;31.72;25.21;100249.11;1746478;81;21517;-73
2022/06/08 09:59:02;;;;;;;1.70;1.30;;;;;;;31.75;24.91;100249.10;1725765;81;21030;-72
2022/06/08 10:01:52;;;;;;;2.20;1.60;;;;;;;31.77;25.08;100254.20;1747147;81;21275;-72
2022/06/08 10:04:33;;;;;;;1.67;1.20;;;;;;;31.81;25.90;100246.66;1759033;80;21039;-73
2022/06/08 10:07:13;;;;;;;;;;;;;;;31.92;25.48;100251.52;1670607;80;21086;-72
2022/06/08 10:10:18;;;;;;;1.87;1.60;;;;;;;31.97;24.81;100248.30;1748182;81;20692;-75
2022/06/08 10:13:03;;;;;;;2.40;1.30;;;;;;;31.99;25.02;100243.16;1763258;80;21086;-73
2022/06/08 10:15:45;;;;;;;1.80;1.30;;;;;;;31.91;25.23;100242.25;1743165;81;21142;-73
2022/06/08 10:18:29;;;;;;;2.43;1.40;;;;;;;31.92;25.14;100244.62;1731026;81;21130;-73
2022/06/08 10:21:14;;;;;;;2.60;1.10;;;;;;;31.95;24.78;100242.99;1730086;81;21060;-74
2022/06/08 10:24:08;;;;;;;2.20;1.20;;;;;;;31.89;24.59;100233.61;1733150;80;21043;-73
2022/06/08 10:26:43;;;;;;;1.50;1.20;;;;;;;31.81;24.47;100230.69;1758382;80;21126;-73
2022/06/08 10:29:34;;;;;;;1.73;1.30;;;;;;;31.83;24.47;100223.57;1731775;82;21162;-73
2022/06/08 10:32:25;;;;;;;2.15;1.20;;;;;;;31.88;25.00;100232.80;1736242;81;21086;-72
2022/06/08 10:34:54;;;;;;;2.00;1.20;;;;;;;31.96;24.68;100224.64;1719687;81;20963;-72
2022/06/08 10:37:31;;;;;;;1.87;1.30;;;;;;;31.90;24.40;100222.73;1737331;81;21069;-73
2022/06/08 10:39:58;;;;;;;2.13;1.13;;;;;;;31.86;24.56;100215.06;1736592;81;21106;-73
2022/06/08 10:42:39;;;;;;;2.97;1.40;;;;;;;31.83;24.60;100221.41;1735925;81;21173;-72
2022/06/08 10:45:27;;;;;;;2.37;1.12;;;;;;;31.83;23.99;100217.27;1743003;81;21443;-72
2022/06/08 10:48:12;;;;;;;2.40;1.30;;;;;;;31.88;23.37;100215.45;1735805;81;21007;-73
2022/06/08 10:50:48;;;;;;;4.07;1.20;;;;;;;32.05;23.80;100213.69;1741859;81;21067;-73
2022/06/08 10:56:39;;;;;;;3.37;1.20;;;;;;;32.15;23.89;100212.77;1727031;80;22528;-74
2022/06/08 10:59:14;;;;;;;4.57;1.50;;;;;;;31.90;23.94;100210.31;1738396;81;21110;-72
2022/06/08 11:02:05;;;;;;;2.53;1.30;;;;;;;31.78;23.87;100206.83;1727047;81;21185;-73
2022/06/08 11:04:38;;;;;;;1.90;1.03;;;;;;;31.80;23.81;100210.58;1761121;80;21011;-72
2022/06/08 11:07:16;;;;;;;3.02;1.32;;;;;;;31.86;23.69;100213.08;1732311;81;21653;-73
2022/06/08 11:09:52;;;;;;;2.37;1.20;;;;;;;31.93;23.45;100211.66;1732499;82;21154;-73
2022/06/08 11:12:30;;;;;;;3.50;1.20;;;;;;;31.89;23.13;100201.25;1734910;81;21137;-73
2022/06/08 11:15:03;;;;;;;2.10;1.13;;;;;;;31.87;22.93;100201.44;1739305;81;20992;-73
2022/06/08 11:17:39;;;;;;;1.63;1.00;;;;;;;31.81;23.47;100202.47;1744028;81;21175;-71
2022/06/08 11:20:32;;;;;;;1.53;1.10;;;;;;;31.80;23.27;100195.39;1764369;80;21003;-73
2022/06/08 11:23:24;;;;;;;1.43;1.00;;;;;;;31.73;22.87;100195.47;1692769;83;21618;-73
2022/06/08 11:26:08;;;;;;;3.33;1.10;;;;;;;31.69;22.85;100200.25;1723906;83;21536;-73
2022/06/08 11:28:42;;;;;;;1.20;1.10;;;;;;;31.82;23.02;100192.20;1727412;81;21054;-73
2022/06/08 11:31:12;;;;;;;2.60;1.33;;;;;;;31.86;23.40;100188.23;1740413;81;21098;-73
2022/06/08 11:34:23;;;;;;;2.60;1.27;;;;;;;31.84;23.53;100191.20;1710777;81;21035;-75
2022/06/08 11:37:13;;;;;;;1.50;1.17;;;;;;;32.00;23.24;100194.99;1737086;81;21546;-74
2022/06/08 11:40:00;;;;;;;2.33;1.10;;;;;;;32.05;23.45;100186.87;1668606;81;21118;-72
2022/06/08 11:42:36;;;;;;;1.60;1.20;;;;;;;32.21;23.38;100184.88;1751968;81;32488;-73
2022/06/08 11:45:20;;;;;;;2.23;1.20;;;;;;;32.33;22.76;100189.86;1758066;80;21076;-74
2022/06/08 11:47:58;;;;;;;1.40;1.03;;;;;;;32.25;22.37;100181.49;1745651;80;21157;-73
2022/06/08 11:50:32;;;;;;;2.97;1.30;;;;;;;32.23;22.33;100183.27;1742029;80;21309;-73
2022/06/08 11:53:03;;;;;;;2.17;1.17;;;;;;;32.33;22.57;100183.55;1757592;80;20940;-73
2022/06/08 11:55:33;;;;;;;1.43;1.00;;;;;;;32.40;22.01;100176.55;1762692;80;21066;-73
2022/06/08 11:58:10;;;;;;;1.83;0.90;;;;;;;32.41;22.19;100177.53;1745953;81;21599;-74
2022/06/08 12:00:53;;;;;;;2.23;1.10;;;;;;;32.48;22.02;100171.72;1728672;82;21099;-72
2022/06/08 12:03:31;;;;;;;2.70;0.90;;;;;;;32.46;22.09;100168.78;1739291;81;21507;-73
2022/06/08 12:06:08;;;;;;;1.13;1.03;;;;;;;32.40;22.55;100164.11;1731410;81;21598;-74
2022/06/08 12:08:42;;;;;;;2.47;1.10;;;;;;;32.52;22.52;100160.04;1747014;81;21024;-73
2022/06/08 12:11:12;;;;;;;2.23;1.20;;;;;;;32.52;22.19;100163.58;1733034;81;21098;-73
2022/06/08 12:13:39;;;;;;;2.17;1.10;;;;;;;32.52;22.00;100160.81;1735446;82;21019;-72
2022/06/08 12:16:30;;;;;;;2.03;1.20;;;;;;;32.54;22.39;100161.16;1738059;81;21563;-74